Time;durP1;ratioP1;P1;durP2;ratioP2;P2;SDS_P1;SDS_P2;PMS_P1;PMS_P2;Temp;Humidity;BMP_temperature;BMP_pressure;BME280_temperature;BME280_humidity;BME280_pressure;Samples;Min_cycle;Max_cycle;Signal;HPM_P1;HPM_P2
2022/04/01 00:02:11;;;;;;;8.50;5.70;;;;;;;2.99;34.37;99082.55;108628;1279;22729;-80
2022/04/01 00:05:38;;;;;;;;;;;;;;;;;;;;;
2022/04/01 00:10:13;;;;;;;;;;;;;;;;;;;;;
2022/04/01 00:16:46;;;;;;;8.10;5.20;;;;;;;2.89;34.52;99075.92;107973;1282;23742;-79
2022/04/01 00:19:31;;;;;;;9.60;4.40;;;;;;;2.87;34.62;99070.00;108353;1279;23775;-80
2022/04/01 00:22:33;;;;;;;7.50;4.60;;;;;;;2.84;34.73;99065.80;108306;1279;22198;-78
2022/04/01 00:25:39;;;;;;;;;;;;;;;;;;;;;
2022/04/01 00:29:10;;;;;;;;;;;;;;;;;;;;;
2022/04/01 00:31:58;;;;;;;6.70;4.40;;;;;;;2.73;35.07;99068.77;108194;1282;23070;-79
2022/04/01 00:35:19;;;;;;;6.50;4.60;;;;;;;2.69;35.32;99072.15;108088;1279;22422;-79
2022/04/01 00:37:52;;;;;;;11.70;5.60;;;;;;;2.66;35.58;99067.51;108211;1276;22863;-78
2022/04/01 00:41:05;;;;;;;8.30;5.30;;;;;;;2.66;35.67;99067.52;108432;1276;23067;-79
2022/04/01 00:44:48;;;;;;;;;;;;;;;;;;;;;
2022/04/01 00:48:24;;;;;;;10.10;6.40;;;;;;;2.49;36.20;99068.66;108901;1264;22091;-80
2022/04/01 00:52:08;;;;;;;;;;;;;;;;;;;;;
2022/04/01 00:55:37;;;;;;;11.60;5.00;;;;;;;2.42;36.78;99071.39;111069;1250;21961;-80
2022/04/01 00:59:26;;;;;;;;;;;;;;;;;;;;;
2022/04/01 01:03:35;;;;;;;;;;;;;;;;;;;;;
2022/04/01 01:07:49;;;;;;;13.90;4.70;;;;;;;2.22;37.99;99067.24;111197;1248;23713;-79
2022/04/01 01:10:53;;;;;;;6.60;4.50;;;;;;;2.18;38.43;99058.76;109415;1264;22008;-78
2022/04/01 01:13:32;;;;;;;;;;;;;;;2.20;38.61;99060.48;109570;1261;21938;-79
2022/04/01 01:16:14;;;;;;;8.90;4.70;;;;;;;2.15;38.88;99060.77;109725;1261;23583;-80
2022/04/01 01:22:21;;;;;;;7.80;4.90;;;;;;;2.11;39.17;99063.02;109063;1268;22851;-78
2022/04/01 01:25:00;;;;;;;7.70;4.90;;;;;;;2.08;39.31;99058.80;108950;1268;22468;-80
2022/04/01 01:28:03;;;;;;;9.20;5.10;;;;;;;2.03;39.48;99062.39;108784;1268;21982;-78
2022/04/01 01:31:12;;;;;;;;;;;;;;;;;;;;;
2022/04/01 01:34:58;;;;;;;;;;;;;;;;;;;;;
2022/04/01 01:38:59;;;;;;;11.10;4.10;;;;;;;1.76;40.67;99048.46;108625;1276;24300;-78
2022/04/01 01:42:37;;;;;;;10.00;4.70;;;;;;;1.76;40.95;99047.80;108467;1276;21988;-79
2022/04/01 01:46:10;;;;;;;;;;;;;;;;;;;;;
2022/04/01 01:49:20;;;;;;;;;;;;;;;;;;;;;
2022/04/01 01:56:26;;;;;;;16.20;5.30;;;;;;;1.63;41.64;99024.30;108269;1282;22020;-79
2022/04/01 02:00:10;;;;;;;;;;;;;;;;;;;;;
2022/04/01 02:03:18;;;;;;;10.50;5.20;;;;;;;1.75;41.84;99018.82;109112;1269;23687;-79
2022/04/01 02:06:56;;;;;;;9.40;4.00;;;;;;;1.70;41.94;99018.66;108675;1275;22908;-81
2022/04/01 02:10:19;;;;;;;9.30;4.40;;;;;;;1.66;42.09;99016.92;108160;1283;22026;-81
2022/04/01 02:13:04;;;;;;;;;;;;;;;1.65;42.14;99015.48;109077;1268;210918;-78
2022/04/01 02:15:40;;;;;;;11.30;4.20;;;;;;;1.58;42.24;99018.05;108585;1273;22123;-79
2022/04/01 02:18:21;;;;;;;17.40;4.70;;;;;;;1.54;42.38;99013.73;108620;1274;24049;-79
2022/04/01 02:20:55;;;;;;;10.40;4.10;;;;;;;1.51;42.53;99007.01;108429;1277;23666;-79
2022/04/01 02:24:11;;;;;;;;;;;;;;;;;;;;;
2022/04/01 02:27:32;;;;;;;11.80;4.50;;;;;;;1.49;42.79;99006.72;108772;1276;22017;-81
2022/04/01 02:31:22;;;;;;;9.30;4.30;;;;;;;1.50;42.99;98999.18;108755;1275;21993;-82
2022/04/01 02:34:53;;;;;;;7.00;4.70;;;;;;;1.51;42.95;99001.17;108654;1277;21993;-80
2022/04/01 02:37:39;;;;;;;14.40;5.00;;;;;;;1.52;42.93;98999.16;108565;1276;21999;-78
2022/04/01 02:40:13;;;;;;;9.70;4.00;;;;;;;1.53;43.01;98999.90;108715;1270;21985;-80
2022/04/01 02:43:02;;;;;;;7.60;4.60;;;;;;;1.55;43.06;99003.40;108770;1274;23692;-81
2022/04/01 02:46:15;;;;;;;13.20;5.40;;;;;;;1.53;43.01;98999.77;108584;1274;22413;-80
2022/04/01 02:50:15;;;;;;;;;;;;;;;;;;;;;
2022/04/01 02:53:15;;;;;;;9.10;4.20;;;;;;;1.37;43.53;99004.73;108781;1273;22051;-79
2022/04/01 02:56:14;;;;;;;11.10;5.30;;;;;;;1.37;43.74;99008.14;108584;1274;22004;-80
2022/04/01 02:59:13;;;;;;;18.20;6.00;;;;;;;1.35;43.84;99012.13;108591;1275;23076;-80
2022/04/01 03:01:52;;;;;;;9.60;4.00;;;;;;;1.32;44.07;99011.59;108518;1276;22090;-78
2022/04/01 03:04:50;;;;;;;9.50;3.90;;;;;;;1.27;44.31;99005.65;108599;1276;22075;-79
2022/04/01 03:07:43;;;;;;;;;;;;;;;;;;;;;
2022/04/01 03:11:15;;;;;;;;;;;;;;;;;;;;;
2022/04/01 03:14:19;;;;;;;12.00;4.80;;;;;;;1.06;45.53;99019.05;108655;1276;21979;-80
2022/04/01 03:17:58;;;;;;;;;;;;;;;;;;;;;
2022/04/01 03:21:30;;;;;;;;;;;;;;;;;;;;;
2022/04/01 03:24:41;;;;;;;10.00;5.60;;;;;;;0.81;46.82;99019.90;109289;1267;21978;-80
2022/04/01 03:28:14;;;;;;;8.10;4.70;;;;;;;0.73;47.35;99015.06;109598;1264;24138;-81
2022/04/01 03:31:41;;;;;;;;;;;;;;;;;;;;;
2022/04/01 03:34:57;;;;;;;10.90;4.10;;;;;;;0.68;47.97;99013.75;109321;1264;22340;-80
2022/04/01 03:38:05;;;;;;;13.70;5.20;;;;;;;0.69;48.17;99017.48;109481;1260;23043;-80
2022/04/01 03:41:23;;;;;;;10.50;5.20;;;;;;;0.71;48.29;99018.02;110097;1259;23258;-83
2022/04/01 03:45:20;;;;;;;10.10;5.50;;;;;;;0.71;48.50;99015.96;110200;1257;21957;-81
2022/04/01 03:49:15;;;;;;;;;;;;;;;;;;;;;
2022/04/01 03:52:36;;;;;;;;;;;;;;;;;;;;;
2022/04/01 03:56:06;;;;;;;8.10;5.40;;;;;;;0.61;49.03;99022.40;110045;1259;21982;-80
2022/04/01 04:00:07;;;;;;;;;;;;;;;;;;;;;
2022/04/01 04:04:17;;;;;;;6.80;3.50;;;;;;;0.47;49.63;99024.49;109174;1270;21994;-79
2022/04/01 04:07:54;;;;;;;5.90;4.00;;;;;;;0.42;49.88;99012.21;108239;1282;22004;-79
2022/04/01 04:10:34;;;;;;;6.80;4.60;;;;;;;0.43;50.05;99015.17;108113;1282;21992;-78
2022/04/01 04:25:10;;;;;;;9.50;4.90;;;;;;;1.44;49.83;99027.06;107393;1291;548111;-78
2022/04/01 04:28:47;;;;;;;;;;;;;;;;;;;;;
2022/04/01 04:33:31;;;;;;;;;;;;;;;;;;;;;
2022/04/01 04:36:57;;;;;;;7.60;4.20;;;;;;;0.59;51.73;99026.33;109621;1265;23581;-80
2022/04/01 04:40:25;;;;;;;;;;;;;;;;;;;;;
2022/04/01 04:43:37;;;;;;;7.20;6.00;;;;;;;0.23;52.54;99024.48;108655;1273;24045;-79
2022/04/01 04:46:53;;;;;;;9.20;5.80;;;;;;;0.14;53.01;99026.89;108649;1272;22258;-79
2022/04/01 04:50:19;;;;;;;9.30;6.00;;;;;;;0.06;53.38;99026.21;108897;1268;22048;-77
2022/04/01 04:53:40;;;;;;;;;;;;;;;;;;;;;
2022/04/01 04:57:05;;;;;;;6.70;4.30;;;;;;;0.00;54.10;99033.42;108393;1279;23085;-76
2022/04/01 05:00:05;;;;;;;8.40;5.30;;;;;;;-0.02;54.46;99029.80;108473;1279;23402;-78
2022/04/01 05:04:40;;;;;;;;;;;;;;;;;;;;;
2022/04/01 05:08:08;;;;;;;8.20;5.10;;;;;;;-0.09;55.50;99026.23;108394;1279;22944;-79
2022/04/01 05:12:13;;;;;;;6.00;4.40;;;;;;;-0.14;55.73;99035.88;108553;1275;22781;-78
2022/04/01 05:15:30;;;;;;;11.70;5.60;;;;;;;-0.22;55.84;99039.30;108964;1264;21991;-77
2022/04/01 05:18:29;;;;;;;9.60;5.00;;;;;;;-0.24;56.03;99039.48;109552;1263;21967;-79
2022/04/01 05:21:18;;;;;;;15.40;5.80;;;;;;;-0.21;56.19;99037.36;109572;1261;22007;-78
2022/04/01 05:24:14;;;;;;;10.10;6.60;;;;;;;-0.17;56.48;99040.27;109381;1263;21964;-78
2022/04/01 05:27:30;;;;;;;7.80;5.10;;;;;;;-0.12;56.67;99043.31;110110;1257;21989;-77
2022/04/01 05:30:43;;;;;;;8.90;5.40;;;;;;;-0.11;56.82;99044.03;109747;1263;21986;-77
2022/04/01 05:33:53;;;;;;;9.50;5.80;;;;;;;-0.10;57.00;99047.13;109317;1264;23465;-77
2022/04/01 05:36:54;;;;;;;8.30;5.00;;;;;;;-0.13;56.89;99051.73;109629;1263;23858;-79
2022/04/01 05:40:30;;;;;;;6.30;4.30;;;;;;;-0.20;57.13;99050.89;109260;1263;21973;-79
2022/04/01 05:44:09;;;;;;;7.00;4.60;;;;;;;-0.20;57.34;99053.84;109882;1260;22758;-77
2022/04/01 05:47:30;;;;;;;8.70;4.90;;;;;;;-0.15;57.47;99050.64;109241;1267;22062;-76
2022/04/01 05:50:28;;;;;;;7.50;4.30;;;;;;;-0.07;57.46;99051.67;108821;1270;22003;-76
2022/04/01 05:53:20;;;;;;;7.70;4.90;;;;;;;-0.02;57.29;99043.48;108400;1277;23697;-76
2022/04/01 05:56:00;;;;;;;6.40;4.70;;;;;;;-0.00;57.23;99039.37;108379;1279;22446;-77
2022/04/01 05:59:06;;;;;;;14.80;6.70;;;;;;;0.12;57.15;99036.52;107573;1285;545007;-78
2022/04/01 06:02:37;;;;;;;13.10;5.30;;;;;;;0.14;57.09;99044.84;109289;1266;22007;-77
2022/04/01 06:05:39;;;;;;;15.40;5.40;;;;;;;0.16;57.09;99054.90;109569;1263;21965;-77
2022/04/01 06:08:56;;;;;;;8.70;4.70;;;;;;;0.15;56.68;99055.17;109344;1263;22941;-76
2022/04/01 06:13:26;;;;;;;11.50;6.00;;;;;;;0.13;56.80;99051.20;103581;1263;8382219;-84
2022/04/01 06:18:03;;;;;;;;;;;;;;;;;;;;;
2022/04/01 06:22:03;;;;;;;;;;;;;;;;;;;;;
2022/04/01 06:26:02;;;;;;;;;;;;;;;;;;;;;
2022/04/01 06:29:41;;;;;;;9.00;4.50;;;;;;;0.15;56.20;99048.89;108024;1285;22090;-79
2022/04/01 06:33:22;;;;;;;7.60;5.10;;;;;;;0.19;56.21;99049.64;107876;1285;21964;-78
2022/04/01 06:37:22;;;;;;;;;;;;;;;;;;;;;
2022/04/01 06:40:19;;;;;;;11.40;5.30;;;;;;;0.27;56.24;99056.52;107140;1294;23464;-79
2022/04/01 06:43:00;;;;;;;10.70;6.50;;;;;;;0.32;56.27;99054.37;106691;1295;23117;-77
2022/04/01 06:46:16;;;;;;;14.70;6.20;;;;;;;0.40;56.29;99054.74;106828;1294;22019;-77
2022/04/01 06:49:14;;;;;;;9.20;5.00;;;;;;;0.46;56.02;99057.61;106764;1294;23181;-76
2022/04/01 06:52:24;;;;;;;;;;;;;;;;;;;;;
2022/04/01 06:55:34;;;;;;;16.10;5.70;;;;;;;0.56;55.99;99057.66;107418;1288;22079;-77
2022/04/01 06:59:10;;;;;;;;;;;;;;;;;;;;;
2022/04/01 07:06:14;;;;;;;22.40;8.70;;;;;;;0.62;55.94;99053.67;108182;1279;23008;-77
2022/04/01 07:09:51;;;;;;;;;;;;;;;;;;;;;
2022/04/01 07:13:10;;;;;;;;;;;;;;;;;;;;;
2022/04/01 07:16:28;;;;;;;13.00;5.70;;;;;;;0.81;55.73;99043.63;108596;1273;21997;-79
2022/04/01 07:25:02;;;;;;;14.50;6.10;;;;;;;1.06;54.99;99059.05;108477;1279;22402;-77
2022/04/01 07:28:09;;;;;;;10.90;5.30;;;;;;;1.16;54.68;99059.69;108099;1279;22010;-78
2022/04/01 07:38:51;;;;;;;;;;;;;;;;;;;;;
2022/04/01 07:42:39;;;;;;;;;;;;;;;;;;;;;
2022/04/01 07:44:50;;;;;;;11.90;5.30;;;;;;;1.15;54.06;99067.98;107377;1289;22077;-77
2022/04/01 07:48:06;;;;;;;;;;;;;;;;;;;;;
2022/04/01 07:51:21;;;;;;;16.70;6.00;;;;;;;1.20;54.20;99057.40;108483;1276;22626;-77
2022/04/01 07:54:27;;;;;;;14.00;7.20;;;;;;;1.29;54.52;99063.50;108191;1279;23104;-79
2022/04/01 07:59:27;;;;;;;12.60;5.90;;;;;;;1.45;54.39;99059.98;108225;1280;22060;-80
2022/04/01 08:02:29;;;;;;;9.90;4.10;;;;;;;1.40;53.83;99058.56;108448;1277;22036;-79
2022/04/01 08:05:47;;;;;;;;;;;;;;;;;;;;;
2022/04/01 08:09:14;;;;;;;;;;;;;;;;;;;;;
2022/04/01 08:12:13;;;;;;;20.20;5.70;;;;;;;1.52;54.19;99058.64;108025;1285;22287;-78
2022/04/01 08:16:14;;;;;;;;;;;;;;;;;;;;;
2022/04/01 08:19:22;;;;;;;9.50;5.40;;;;;;;1.64;53.21;99065.71;108082;1283;23779;-77
2022/04/01 08:22:47;;;;;;;;;;;;;;;;;;;;;
2022/04/01 08:26:12;;;;;;;33.70;6.60;;;;;;;1.75;52.63;99068.62;107722;1283;22001;-80
2022/04/01 08:29:30;;;;;;;;;;;;;;;;;;;;;
2022/04/01 08:33:15;;;;;;;;;;;;;;;;;;;;;
2022/04/01 08:40:00;;;;;;;26.80;6.70;;;;;;;2.16;51.58;99068.44;108195;1279;22000;-78
2022/04/01 08:43:39;;;;;;;16.30;6.30;;;;;;;2.22;51.05;99072.09;108337;1279;23155;-79
2022/04/01 08:47:21;;;;;;;21.00;6.60;;;;;;;2.45;51.13;99075.79;107678;1289;546002;-79
2022/04/01 08:51:56;;;;;;;;;;;;;;;;;;;;;
2022/04/01 08:59:59;;;;;;;;;;;;;;;;;;;;;
2022/04/01 09:04:02;;;;;;;;;;;;;;;;;;;;;
2022/04/01 09:27:46;;;;;;;;;;;;;;;;;;;;;
2022/04/01 09:30:37;;;;;;;22.80;5.30;;;;;;;3.19;45.54;99093.13;105079;1313;23742;-78
2022/04/01 09:33:48;;;;;;;15.40;5.10;;;;;;;3.03;45.77;99094.98;105025;1312;22047;-77
2022/04/01 09:36:58;;;;;;;;;;;;;;;;;;;;;
2022/04/01 09:40:27;;;;;;;;;;;;;;;;;;;;;
2022/04/01 09:54:20;;;;;;;;;;;;;;;;;;;;;
2022/04/01 10:02:51;;;;;;;;;;;;;;;;;;;;;
2022/04/01 10:06:12;;;;;;;;;;;;;;;;;;;;;
2022/04/01 10:09:44;;;;;;;19.20;6.00;;;;;;;3.22;45.77;99093.02;107938;1283;22212;-77
2022/04/01 10:14:01;;;;;;;;;;;;;;;;;;;;;
2022/04/01 10:17:36;;;;;;;29.60;6.50;;;;;;;3.55;45.29;99091.46;108428;1277;22109;-77
2022/04/01 10:22:03;;;;;;;21.40;5.70;;;;;;;3.66;44.65;99084.38;108627;1274;22012;-78
2022/04/01 10:25:56;;;;;;;15.60;6.10;;;;;;;3.80;44.22;99086.48;108444;1277;23116;-78
2022/04/01 10:29:22;;;;;;;;;;;;;;;;;;;;;
2022/04/01 10:33:01;;;;;;;;;;;;;;;;;;;;;
2022/04/01 10:36:46;;;;;;;;;;;;;;;;;;;;;
2022/04/01 10:40:42;;;;;;;14.20;6.30;;;;;;;4.23;41.76;99076.38;108734;1271;22396;-77
2022/04/01 10:45:53;;;;;;;;;;;;;;;;;;;;;
2022/04/01 10:53:09;;;;;;;10.40;4.80;;;;;;;4.34;40.65;99075.10;107686;1286;22024;-78
2022/04/01 11:00:07;;;;;;;22.60;7.20;;;;;;;4.41;40.08;99068.02;107288;1292;22914;-78
2022/04/01 11:08:20;;;;;;;20.10;7.90;;;;;;;4.51;39.78;99066.00;107919;1285;21998;-77
2022/04/01 11:11:43;;;;;;;13.60;5.70;;;;;;;4.56;39.59;99059.02;107867;1285;22068;-78
2022/04/01 11:19:07;;;;;;;;;;;;;;;;;;;;;
2022/04/01 11:22:13;;;;;;;;;;;;;;;;;;;;;
2022/04/01 11:26:15;;;;;;;;;;;;;;;;;;;;;
2022/04/01 11:39:53;;;;;;;43.00;7.80;;;;;;;6.02;35.31;99068.83;107716;1286;548430;-77
2022/04/01 11:43:54;;;;;;;22.30;4.30;;;;;;;5.86;34.31;99070.83;106212;1256;5364669;-77
2022/04/01 11:47:16;;;;;;;20.30;4.40;;;;;;;5.32;35.48;99079.14;110330;1256;21975;-79
2022/04/01 11:51:06;;;;;;;;;;;;;;;;;;;;;
2022/04/01 11:54:31;;;;;;;;;;;;;;;;;;;;;
2022/04/01 11:58:29;;;;;;;16.70;4.50;;;;;;;4.82;36.93;99066.73;109845;1262;21981;-77
2022/04/01 12:01:37;;;;;;;35.40;5.70;;;;;;;4.72;36.70;99057.83;109167;1267;22069;-78
2022/04/01 12:05:02;;;;;;;25.50;6.20;;;;;;;4.67;36.71;99065.66;109204;1267;21975;-78
2022/04/01 12:12:12;;;;;;;;;;;;;;;;;;;;;
2022/04/01 12:15:16;;;;;;;22.30;7.20;;;;;;;4.68;37.22;99069.03;108558;1274;24309;-78
2022/04/01 12:18:40;;;;;;;22.80;5.00;;;;;;;4.71;37.28;99069.60;108524;1274;23781;-77
2022/04/01 12:22:10;;;;;;;;;;;;;;;;;;;;;
2022/04/01 12:25:49;;;;;;;;;;;;;;;;;;;;;
2022/04/01 12:29:20;;;;;;;20.80;5.00;;;;;;;4.65;36.76;99062.17;108370;1276;21988;-77
2022/04/01 12:32:27;;;;;;;;;;;;;;;;;;;;;
2022/04/01 12:36:07;;;;;;;20.30;4.40;;;;;;;4.72;36.81;99054.84;107703;1283;23702;-77
2022/04/01 12:40:10;;;;;;;;;;;;;;;;;;;;;
2022/04/01 12:44:32;;;;;;;25.10;6.40;;;;;;;4.87;36.84;99059.77;107647;1286;23165;-78
2022/04/01 12:47:13;;;;;;;;;;;;;;;;;;;;;
2022/04/01 13:02:59;;;;;;;16.70;4.80;;;;;;;5.26;36.01;99046.48;107591;1289;549827;-77
2022/04/01 13:07:18;;;;;;;;;;;;;;;;;;;;;
2022/04/01 13:11:25;;;;;;;;;;;;;;;;;;;;;
2022/04/01 13:14:59;;;;;;;;;;;;;;;;;;;;;
2022/04/01 13:20:20;;;;;;;;;;;;;;;;;;;;;
2022/04/01 13:23:41;;;;;;;;;;;;;;;;;;;;;
2022/04/01 13:28:16;;;;;;;;;;;;;;;;;;;;;
2022/04/01 13:31:43;;;;;;;;;;;;;;;;;;;;;
2022/04/01 13:35:24;;;;;;;;;;;;;;;;;;;;;
2022/04/01 13:39:10;;;;;;;;;;;;;;;;;;;;;
2022/04/01 13:42:34;;;;;;;;;;;;;;;;;;;;;
2022/04/01 13:46:00;;;;;;;;;;;;;;;;;;;;;
2022/04/01 14:04:25;;;;;;;;;;;;;;;;;;;;;
2022/04/01 14:12:37;;;;;;;17.90;4.20;;;;;;;6.37;29.73;99044.85;110840;1252;22486;-77
2022/04/01 14:16:14;;;;;;;11.80;4.30;;;;;;;6.11;30.24;99046.46;109679;1264;21992;-76
2022/04/01 14:19:40;;;;;;;24.50;5.20;;;;;;;5.96;30.71;99048.27;110073;1254;22763;-77
2022/04/01 14:22:23;;;;;;;26.60;6.10;;;;;;;5.90;31.06;99051.89;110580;1254;23659;-77
2022/04/01 14:25:21;;;;;;;31.60;5.70;;;;;;;5.86;31.26;99058.79;110553;1254;22572;-77
2022/04/01 14:28:29;;;;;;;;;;;;;;;;;;;;;
2022/04/01 14:32:14;;;;;;;;;;;;;;;;;;;;;
2022/04/01 14:36:02;;;;;;;;;;;;;;;;;;;;;
2022/04/01 14:39:25;;;;;;;13.90;5.70;;;;;;;5.61;31.60;99055.68;111258;1249;22777;-77
2022/04/01 14:42:48;;;;;;;18.60;5.50;;;;;;;5.59;31.76;99060.90;111014;1249;23001;-77
2022/04/01 14:47:03;;;;;;;;;;;;;;;;;;;;;
2022/04/01 14:54:31;;;;;;;;;;;;;;;;;;;;;
2022/04/01 14:58:28;;;;;;;20.90;4.80;;;;;;;5.58;32.20;99065.81;111173;1248;23843;-76
2022/04/01 15:01:56;;;;;;;29.10;5.40;;;;;;;5.55;32.16;99070.52;110597;1253;23726;-76
2022/04/01 15:06:33;;;;;;;;;;;;;;;;;;;;;
2022/04/01 15:10:13;;;;;;;;;;;;;;;;;;;;;
2022/04/01 15:13:27;;;;;;;20.90;8.20;;;;;;;5.33;32.29;99069.41;109242;1265;24317;-75
2022/04/01 15:18:20;;;;;;;52.60;7.90;;;;;;;5.31;32.38;99074.59;110044;1256;22013;-77
2022/04/01 15:22:02;;;;;;;12.10;5.10;;;;;;;5.27;32.47;99081.08;108833;1269;23686;-76
2022/04/01 15:24:58;;;;;;;;;;;;;;;;;;;;;
2022/04/01 15:27:55;;;;;;;17.10;5.10;;;;;;;5.21;32.41;99080.48;109637;1262;23065;-77
2022/04/01 15:31:40;;;;;;;;;;;;;;;;;;;;;
2022/04/01 15:36:09;;;;;;;;;;;;;;;;;;;;;
2022/04/01 15:38:48;;;;;;;12.80;4.30;;;;;;;5.08;32.40;99074.93;108986;1269;22901;-78
2022/04/01 15:43:09;;;;;;;;;;;;;;;;;;;;;
2022/04/01 15:46:42;;;;;;;18.90;5.50;;;;;;;4.98;32.73;99081.59;109005;1270;22025;-76
2022/04/01 15:49:53;;;;;;;;;;;;;;;;;;;;;
2022/04/01 15:53:00;;;;;;;16.20;5.00;;;;;;;4.97;32.92;99094.25;108470;1276;22604;-77
2022/04/01 15:57:06;;;;;;;;;;;;;;;;;;;;;
2022/04/01 16:00:01;;;;;;;20.70;4.10;;;;;;;4.92;33.00;99094.75;109912;1257;22069;-77
2022/04/01 16:03:31;;;;;;;16.90;5.60;;;;;;;4.87;33.23;99097.42;108949;1269;23046;-75
2022/04/01 16:06:05;;;;;;;17.20;4.40;;;;;;;4.87;33.33;99100.91;108656;1271;23753;-77
2022/04/01 16:08:42;;;;;;;18.50;4.10;;;;;;;4.88;33.21;99099.41;108654;1268;22010;-76
2022/04/01 16:11:11;;;;;;;9.50;3.80;;;;;;;4.88;33.11;99102.14;108953;1265;22675;-76
2022/04/01 16:14:16;;;;;;;;;;;;;;;;;;;;;
2022/04/01 16:18:09;;;;;;;;;;;;;;;;;;;;;
2022/04/01 16:21:37;;;;;;;26.00;5.80;;;;;;;4.78;32.91;99118.56;109223;1260;21982;-75
2022/04/01 16:24:53;;;;;;;16.20;5.90;;;;;;;4.77;32.96;99119.58;109335;1263;21993;-78
2022/04/01 16:32:58;;;;;;;;;;;;;;;;;;;;;
2022/04/01 16:36:07;;;;;;;;;;;;;;;;;;;;;
2022/04/01 16:39:26;;;;;;;29.20;8.00;;;;;;;4.70;33.05;99132.96;108843;1268;23063;-76
2022/04/01 16:42:40;;;;;;;;;;;;;;;;;;;;;
2022/04/01 16:45:18;;;;;;;14.50;5.80;;;;;;;4.65;33.14;99140.48;109510;1260;21997;-76
2022/04/01 16:48:27;;;;;;;15.50;6.30;;;;;;;4.64;33.26;99141.45;109342;1263;21995;-78
2022/04/01 16:51:39;;;;;;;;;;;;;;;;;;;;;
2022/04/01 16:54:45;;;;;;;;;;;;;;;;;;;;;
2022/04/01 17:02:13;;;;;;;16.20;6.50;;;;;;;4.62;32.86;99153.58;109386;1265;22002;-76
2022/04/01 17:12:52;;;;;;;;;;;;;;;;;;;;;
2022/04/01 17:15:27;;;;;;;13.50;4.90;;;;;;;4.50;32.84;99175.38;109011;1264;21993;-77
2022/04/01 17:21:42;;;;;;;19.40;5.70;;;;;;;4.46;32.92;99177.83;108406;1278;23100;-76
2022/04/01 17:24:41;;;;;;;13.00;4.60;;;;;;;4.43;32.81;99176.46;108383;1278;22159;-76
2022/04/01 17:28:00;;;;;;;12.20;6.40;;;;;;;4.39;32.73;99185.90;108463;1275;22464;-74
2022/04/01 17:30:51;;;;;;;19.30;7.00;;;;;;;4.34;32.81;99192.50;108120;1281;23872;-74
2022/04/01 17:33:43;;;;;;;12.80;5.10;;;;;;;4.33;32.81;99197.88;108301;1277;22910;-76
2022/04/01 17:36:35;;;;;;;16.80;6.30;;;;;;;4.30;32.89;99200.29;108453;1274;22030;-76
2022/04/01 17:39:17;;;;;;;20.60;6.80;;;;;;;4.26;32.90;99197.83;108863;1269;22018;-76
2022/04/01 17:42:13;;;;;;;16.30;7.00;;;;;;;4.24;32.96;99197.87;108907;1265;22068;-75
2022/04/01 17:45:01;;;;;;;18.20;9.90;;;;;;;4.23;33.12;99209.83;109271;1263;21996;-75
2022/04/01 17:47:40;;;;;;;24.50;7.50;;;;;;;4.19;33.11;99215.11;109853;1259;23780;-75
2022/04/01 17:50:14;;;;;;;17.80;6.10;;;;;;;4.17;33.12;99219.20;109765;1259;22076;-75
2022/04/01 17:53:03;;;;;;;17.70;6.20;;;;;;;4.16;33.11;99223.48;110682;1248;22049;-75
2022/04/01 17:56:45;;;;;;;11.70;6.10;;;;;;;4.12;33.13;99223.02;111214;1247;22559;-75
2022/04/01 18:00:30;;;;;;;12.90;5.20;;;;;;;4.09;33.32;99233.92;112000;1242;21979;-77
2022/04/01 18:04:08;;;;;;;;;;;;;;;;;;;;;
2022/04/01 18:08:29;;;;;;;;;;;;;;;;;;;;;
2022/04/01 18:11:56;;;;;;;14.40;7.80;;;;;;;3.99;33.47;99237.35;112981;1235;23403;-75
2022/04/01 18:16:05;;;;;;;;;;;;;;;;;;;;;
2022/04/01 18:19:48;;;;;;;14.00;7.10;;;;;;;4.01;33.29;99247.39;111086;1251;21983;-76
2022/04/01 18:23:33;;;;;;;;;;;;;;;;;;;;;
2022/04/01 18:28:23;;;;;;;18.10;7.70;;;;;;;4.04;33.22;99258.61;111157;1251;22086;-76
2022/04/01 18:32:30;;;;;;;20.50;6.40;;;;;;;4.03;33.24;99260.46;110783;1254;21976;-76
2022/04/01 18:36:02;;;;;;;;;;;;;;;;;;;;;
2022/04/01 18:39:14;;;;;;;;;;;;;;;;;;;;;
2022/04/01 18:42:35;;;;;;;9.80;5.10;;;;;;;3.96;33.20;99268.95;109004;1270;22014;-76
2022/04/01 18:45:24;;;;;;;11.00;4.90;;;;;;;3.94;33.23;99271.61;108602;1271;22034;-76
2022/04/01 18:47:55;;;;;;;14.30;6.10;;;;;;;3.93;33.24;99271.73;108640;1271;22001;-76
2022/04/01 18:50:32;;;;;;;17.50;4.90;;;;;;;3.93;33.21;99270.84;109018;1268;22786;-76
2022/04/01 18:54:01;;;;;;;20.80;5.50;;;;;;;3.88;33.16;99270.29;104933;1259;5457485;-75
2022/04/01 18:58:14;;;;;;;20.10;6.20;;;;;;;3.80;33.17;99272.64;109514;1263;21967;-80
2022/04/01 19:05:58;;;;;;;;;;;;;;;;;;;;;
2022/04/01 19:10:14;;;;;;;;;;;;;;;;;;;;;
2022/04/01 19:13:00;;;;;;;11.70;4.90;;;;;;;3.70;33.56;99286.73;108807;1271;23052;-75
2022/04/01 19:15:51;;;;;;;17.40;6.00;;;;;;;3.71;33.60;99291.79;109417;1259;22042;-76
2022/04/01 19:19:24;;;;;;;16.70;6.70;;;;;;;3.70;33.62;99295.59;109478;1259;21995;-77
2022/04/01 19:22:59;;;;;;;;;;;;;;;;;;;;;
2022/04/01 19:26:29;;;;;;;;;;;;;;;;;;;;;
2022/04/01 19:30:12;;;;;;;8.10;4.60;;;;;;;3.60;34.04;99292.54;109288;1265;21988;-75
2022/04/01 19:33:29;;;;;;;;;;;;;;;;;;;;;
2022/04/01 19:37:02;;;;;;;;;;;;;;;;;;;;;
2022/04/01 19:40:30;;;;;;;;;;;;;;;;;;;;;
2022/04/01 19:43:38;;;;;;;13.50;4.90;;;;;;;3.55;34.20;99303.27;109149;1259;22140;-75
2022/04/01 19:47:51;;;;;;;13.00;5.40;;;;;;;3.55;34.33;99302.45;109725;1259;22006;-74
2022/04/01 19:52:22;;;;;;;;;;;;;;;;;;;;;
2022/04/01 19:55:29;;;;;;;;;;;;;;;;;;;;;
2022/04/01 19:59:13;;;;;;;;;;;;;;;;;;;;;
2022/04/01 20:02:38;;;;;;;;;;;;;;;;;;;;;
2022/04/01 20:06:17;;;;;;;;;;;;;;;;;;;;;
2022/04/01 20:09:59;;;;;;;;;;;;;;;;;;;;;
2022/04/01 20:12:45;;;;;;;;;;;;;;;;;;;;;
2022/04/01 20:17:09;;;;;;;9.00;4.70;;;;;;;3.53;33.96;99300.05;108602;1270;21994;-74
2022/04/01 20:19:25;;;;;;;9.30;3.70;;;;;;;3.51;33.86;99299.73;108772;1268;22854;-78
2022/04/01 20:22:34;;;;;;;12.30;4.80;;;;;;;3.54;33.97;99295.03;108853;1265;21994;-75
2022/04/01 20:25:19;;;;;;;7.50;3.50;;;;;;;3.57;33.70;99296.52;108548;1271;23820;-76
2022/04/01 20:28:26;;;;;;;7.90;4.70;;;;;;;3.55;33.56;99292.49;108491;1273;22135;-75
2022/04/01 20:31:35;;;;;;;;;;;;;;;;;;;;;
2022/04/01 20:34:56;;;;;;;12.70;4.00;;;;;;;3.44;33.38;99286.99;109942;1261;23134;-75
2022/04/01 20:38:52;;;;;;;;;;;;;;;;;;;;;
2022/04/01 20:42:30;;;;;;;;;;;;;;;;;;;;;
2022/04/01 20:46:53;;;;;;;11.00;4.40;;;;;;;3.39;33.61;99282.27;110664;1248;24511;-76
2022/04/01 20:49:54;;;;;;;;;;;;;;;;;;;;;
2022/04/01 20:52:40;;;;;;;;;;;;;;;;;;;;;
2022/04/01 20:55:35;;;;;;;5.30;3.80;;;;;;;3.40;33.55;99283.76;110164;1260;23613;-76
2022/04/01 20:58:22;;;;;;;6.50;3.90;;;;;;;3.39;33.55;99278.60;110157;1258;22033;-75
2022/04/01 21:01:46;;;;;;;7.90;4.60;;;;;;;3.39;33.56;99278.53;109680;1262;23724;-77
2022/04/01 21:05:21;;;;;;;7.90;4.60;;;;;;;3.37;33.54;99276.13;109751;1260;23146;-76
2022/04/01 21:08:47;;;;;;;10.20;3.70;;;;;;;3.38;33.51;99274.37;109804;1260;23080;-75
2022/04/01 21:11:56;;;;;;;;;;;;;;;;;;;;;
2022/04/01 21:15:47;;;;;;;10.10;4.60;;;;;;;3.55;33.29;99281.05;107391;1288;549719;-78
2022/04/01 21:19:40;;;;;;;;;;;;;;;;;;;;;
2022/04/01 21:23:21;;;;;;;;;;;;;;;;;;;;;
2022/04/01 21:27:37;;;;;;;8.90;4.90;;;;;;;3.36;33.38;99276.14;109014;1268;21982;-77
2022/04/01 21:31:45;;;;;;;6.10;4.00;;;;;;;3.31;33.51;99279.00;106636;1273;23656;-77
2022/04/01 21:35:21;;;;;;;10.70;4.90;;;;;;;3.28;33.61;99282.40;107710;1285;22819;-76
2022/04/01 21:38:17;;;;;;;;;;;;;;;;;;;;;
2022/04/01 21:41:20;;;;;;;17.70;7.00;;;;;;;3.27;33.84;99280.02;107318;1289;23125;-75
2022/04/01 21:44:47;;;;;;;;;;;;;;;;;;;;;
2022/04/01 21:47:54;;;;;;;6.50;4.30;;;;;;;3.26;33.98;99279.28;107076;1291;22030;-75
2022/04/01 21:51:15;;;;;;;6.60;3.80;;;;;;;3.22;33.97;99281.56;106841;1292;22131;-75
2022/04/01 21:54:26;;;;;;;10.10;4.60;;;;;;;3.16;34.04;99280.73;107221;1289;24543;-76
2022/04/01 21:57:54;;;;;;;;;;;;;;;;;;;;;
2022/04/01 22:01:35;;;;;;;8.30;3.90;;;;;;;3.10;34.32;99275.95;108153;1279;21998;-76
2022/04/01 22:04:49;;;;;;;11.10;5.90;;;;;;;3.07;34.38;99277.48;107907;1276;23464;-75
2022/04/01 22:09:06;;;;;;;8.50;5.20;;;;;;;3.03;34.50;99279.05;108713;1269;22100;-76
2022/04/01 22:16:59;;;;;;;16.80;6.10;;;;;;;2.99;34.75;99275.04;108471;1276;23145;-75
2022/04/01 22:23:05;;;;;;;12.80;4.90;;;;;;;2.94;34.94;99271.25;107963;1282;23065;-77
2022/04/01 22:26:29;;;;;;;9.60;4.10;;;;;;;2.94;34.90;99272.48;107859;1282;22030;-76
2022/04/01 22:30:22;;;;;;;;;;;;;;;;;;;;;
2022/04/01 22:33:21;;;;;;;9.10;5.60;;;;;;;2.94;34.92;99271.88;107247;1288;23640;-76
2022/04/01 22:36:24;;;;;;;8.60;4.50;;;;;;;2.95;34.96;99273.00;107270;1288;22009;-75
2022/04/01 22:39:31;;;;;;;10.70;4.60;;;;;;;2.95;34.86;99272.73;107391;1289;22028;-75
2022/04/01 22:45:52;;;;;;;9.70;4.50;;;;;;;2.95;34.94;99269.19;106939;1292;22017;-75
2022/04/01 22:49:43;;;;;;;11.00;4.60;;;;;;;2.96;34.88;99274.19;106869;1294;22027;-75
2022/04/01 22:56:42;;;;;;;8.50;4.70;;;;;;;2.93;34.92;99274.58;106469;1298;23114;-74
2022/04/01 22:59:57;;;;;;;16.80;4.30;;;;;;;2.96;34.96;99272.65;106319;1295;23081;-76
2022/04/01 23:03:39;;;;;;;;;;;;;;;;;;;;;
2022/04/01 23:06:01;;;;;;;9.40;4.60;;;;;;;2.96;34.90;99274.31;106469;1294;22037;-76